Time,TemperatureF,DewpointF,PressureIn,WindDirection,WindDirectionDegrees,WindSpeedMPH,WindSpeedGustMPH,Humidity,HourlyPrecipIn,Conditions,Clouds,dailyrainin,SolarRadiationWatts/m^2,SoftwareType,DateUTC
2013-03-14 00:06:00,54.9,22.5,29.71,NE,45,0.0,0.0,10,0.00,,,-99.99,0.0,Linux-Irox,2013-03-14 07:06:00,
2013-03-14 00:16:00,54.9,22.5,29.71,NE,45,0.0,0.0,10,0.00,,,-99.99,0.0,Linux-Irox,2013-03-14 07:16:00,
2013-03-14 00:26:00,54.9,22.5,29.71,NE,45,0.0,0.0,10,0.00,,,-99.99,0.0,Linux-Irox,2013-03-14 07:26:00,
2013-03-14 00:36:00,55.2,22.8,29.71,NW,315,0.0,0.0,10,0.00,,,-99.99,0.0,Linux-Irox,2013-03-14 07:36:00,
2013-03-14 00:46:00,55.4,23.4,29.69,NNW,337,0.0,0.0,11,0.00,,,-99.99,0.0,Linux-Irox,2013-03-14 07:46:00,
2013-03-14 00:56:00,55.6,23.5,29.69,NNE,22,0.0,0.0,11,0.00,,,-99.99,0.0,Linux-Irox,2013-03-14 07:56:00,
2013-03-14 01:06:00,55.8,23.7,29.70,NW,315,0.0,0.0,11,0.00,,,-99.99,0.0,Linux-Irox,2013-03-14 08:06:00,
2013-03-14 01:16:00,55.8,23.7,29.70,NNE,22,0.0,0.0,11,0.00,,,-99.99,0.0,Linux-Irox,2013-03-14 08:16:00,
2013-03-14 01:26:00,55.6,23.5,29.71,South,180,0.0,0.0,11,0.00,,,-99.99,0.0,Linux-Irox,2013-03-14 08:26:00,
2013-03-14 01:36:00,55.4,23.4,29.71,NE,45,0.0,0.0,11,0.00,,,-99.99,0.0,Linux-Irox,2013-03-14 08:36:00,
2013-03-14 01:46:00,55.0,22.6,29.69,NNE,22,0.0,0.0,10,0.00,,,-99.99,0.0,Linux-Irox,2013-03-14 08:46:00,
2013-03-14 01:56:00,55.2,22.8,29.69,NNE,22,0.0,0.0,10,0.00,,,-99.99,0.0,Linux-Irox,2013-03-14 08:56:00,
2013-03-14 02:06:00,55.6,23.5,29.70,NNE,22,0.0,0.0,11,0.00,,,-99.99,0.0,Linux-Irox,2013-03-14 09:06:00,
2013-03-14 02:16:00,55.4,23.4,29.70,NE,45,0.0,0.0,11,0.00,,,-99.99,0.0,Linux-Irox,2013-03-14 09:16:00,
2013-03-14 02:26:00,54.9,22.5,29.70,NNE,22,0.0,0.0,10,0.00,,,-99.99,0.0,Linux-Irox,2013-03-14 09:26:00,
2013-03-14 02:36:00,54.5,22.1,29.70,NNE,22,0.0,0.0,10,0.00,,,-99.99,0.0,Linux-Irox,2013-03-14 09:36:00,
2013-03-14 02:46:00,54.3,21.9,29.70,North,0,0.0,0.0,10,0.00,,,-99.99,0.0,Linux-Irox,2013-03-14 09:46:00,
2013-03-14 02:56:00,53.8,21.4,29.70,North,0,0.0,0.0,10,0.00,,,-99.99,0.0,Linux-Irox,2013-03-14 09:56:00,
2013-03-14 03:06:00,54.0,20.1,29.71,North,0,0.2,0.0,6,0.00,,,-99.99,0.0,Linux-Irox,2013-03-14 10:06:00,
2013-03-14 03:16:00,53.4,20.3,29.71,NNE,22,0.0,0.0,8,0.00,,,-99.99,0.0,Linux-Irox,2013-03-14 10:16:00,
2013-03-14 03:26:00,53.2,20.1,29.70,NE,45,0.0,0.0,8,0.00,,,-99.99,0.0,Linux-Irox,2013-03-14 10:26:00,
2013-03-14 03:36:00,53.1,19.9,29.70,NNE,22,0.0,0.0,8,0.00,,,-99.99,0.0,Linux-Irox,2013-03-14 10:36:00,
2013-03-14 03:46:00,53.1,19.9,29.70,North,0,0.0,0.0,8,0.00,,,-99.99,0.0,Linux-Irox,2013-03-14 10:46:00,
2013-03-14 03:56:00,53.1,19.9,29.70,NE,45,0.0,0.0,8,0.00,,,-99.99,0.0,Linux-Irox,2013-03-14 10:56:00,
2013-03-14 04:06:00,53.1,19.9,29.69,NNE,22,0.0,0.0,8,0.00,,,-99.99,0.0,Linux-Irox,2013-03-14 11:06:00,
2013-03-14 04:16:00,53.4,20.3,29.69,NE,45,0.0,0.0,8,0.00,,,-99.99,0.0,Linux-Irox,2013-03-14 11:16:00,
2013-03-14 04:26:00,53.4,20.3,29.70,NW,315,0.0,0.0,8,0.00,,,-99.99,0.0,Linux-Irox,2013-03-14 11:26:00,
2013-03-14 04:36:00,53.1,19.9,29.70,NE,45,0.0,0.0,8,0.00,,,-99.99,0.0,Linux-Irox,2013-03-14 11:36:00,
2013-03-14 04:46:00,53.4,20.3,29.69,ENE,67,0.0,0.0,8,0.00,,,-99.99,0.0,Linux-Irox,2013-03-14 11:46:00,
2013-03-14 04:56:00,53.2,20.1,29.69,NE,45,0.0,0.0,8,0.00,,,-99.99,0.0,Linux-Irox,2013-03-14 11:56:00,
2013-03-14 05:06:00,53.1,19.9,29.69,North,0,0.0,0.0,8,0.00,,,-99.99,0.0,Linux-Irox,2013-03-14 12:06:00,
2013-03-14 05:16:00,52.9,19.8,29.69,NE,45,0.0,0.0,8,0.00,,,-99.99,0.0,Linux-Irox,2013-03-14 12:16:00,
2013-03-14 05:26:00,52.9,19.8,29.69,NNE,22,0.0,0.0,8,0.00,,,-99.99,0.0,Linux-Irox,2013-03-14 12:26:00,
2013-03-14 05:36:00,52.9,19.8,29.69,ENE,67,0.0,0.0,8,0.00,,,-99.99,0.0,Linux-Irox,2013-03-14 12:36:00,
2013-03-14 05:46:00,53.4,20.3,29.68,NW,315,0.0,0.0,8,0.00,,,-99.99,0.0,Linux-Irox,2013-03-14 12:46:00,
2013-03-14 05:56:00,53.2,20.1,29.68,NNE,22,0.0,0.0,8,0.00,,,-99.99,0.0,Linux-Irox,2013-03-14 12:56:00,
2013-03-14 06:01:00,53.4,20.3,29.69,ENE,67,0.0,0.0,8,0.00,,,-99.99,0.0,Linux-Irox,2013-03-14 13:01:00,
2013-03-14 06:06:00,53.4,20.3,29.69,ENE,67,0.0,0.0,8,0.00,,,-99.99,0.0,Linux-Irox,2013-03-14 13:06:00,
2013-03-14 06:16:00,54.0,20.1,29.69,NNE,22,0.0,0.0,6,0.00,,,-99.99,0.0,Linux-Irox,2013-03-14 13:16:00,
2013-03-14 06:26:00,53.4,20.3,29.68,North,0,0.0,0.0,8,0.00,,,-99.99,0.0,Linux-Irox,2013-03-14 13:26:00,
2013-03-14 06:31:00,52.9,19.8,29.68,NNE,22,0.2,0.0,8,0.00,,,-99.99,0.0,Linux-Irox,2013-03-14 13:31:00,
2013-03-14 06:36:00,52.9,19.8,29.68,NNE,22,0.0,0.0,8,0.00,,,-99.99,0.0,Linux-Irox,2013-03-14 13:36:00,
2013-03-14 06:46:00,52.7,19.6,29.69,NE,45,0.0,0.0,8,0.00,,,-99.99,0.0,Linux-Irox,2013-03-14 13:46:00,
2013-03-14 06:56:00,52.0,18.9,29.69,ENE,67,0.0,0.0,8,0.00,,,-99.99,0.0,Linux-Irox,2013-03-14 13:56:00,
2013-03-14 07:01:00,51.8,18.7,29.69,ENE,67,0.0,0.0,8,0.00,,,-99.99,0.0,Linux-Irox,2013-03-14 14:01:00,
2013-03-14 07:06:00,51.6,18.9,29.69,North,0,0.0,0.0,9,0.00,,,-99.99,0.0,Linux-Irox,2013-03-14 14:06:00,
2013-03-14 07:16:00,51.3,18.5,29.69,ENE,67,0.0,0.0,9,0.00,,,-99.99,0.0,Linux-Irox,2013-03-14 14:16:00,
2013-03-14 07:26:00,51.3,18.5,29.69,ENE,67,0.0,0.0,9,0.00,,,-99.99,0.0,Linux-Irox,2013-03-14 14:26:00,
2013-03-14 07:31:00,51.3,18.5,29.69,North,0,0.0,0.0,9,0.00,,,-99.99,0.0,Linux-Irox,2013-03-14 14:31:00,
2013-03-14 07:36:00,51.8,18.7,29.69,ENE,67,0.0,0.0,8,0.00,,,-99.99,0.0,Linux-Irox,2013-03-14 14:36:00,
2013-03-14 07:46:00,51.8,18.7,29.69,NNE,22,0.0,0.0,8,0.00,,,-99.99,0.0,Linux-Irox,2013-03-14 14:46:00,
2013-03-14 07:56:00,52.3,19.2,29.69,NE,45,0.0,0.0,8,0.00,,,-99.99,0.0,Linux-Irox,2013-03-14 14:56:00,
2013-03-14 08:01:00,52.7,19.6,29.70,NNE,22,0.0,0.0,8,0.00,,,-99.99,0.0,Linux-Irox,2013-03-14 15:01:00,
2013-03-14 08:06:00,53.6,19.8,29.70,NE,45,0.0,0.0,6,0.00,,,-99.99,0.0,Linux-Irox,2013-03-14 15:06:00,
2013-03-14 08:16:00,55.4,21.6,29.70,ENE,67,0.0,0.0,6,0.00,,,-99.99,0.0,Linux-Irox,2013-03-14 15:16:00,
2013-03-14 08:26:00,56.8,22.6,29.69,NE,45,0.0,0.0,5,0.00,,,-99.99,0.0,Linux-Irox,2013-03-14 15:26:00,
2013-03-14 08:31:00,58.1,23.9,29.69,ENE,67,0.7,5.8,5,0.00,,,-99.99,0.0,Linux-Irox,2013-03-14 15:31:00,
2013-03-14 08:36:00,59.4,25.2,29.69,ESE,112,0.7,0.0,5,0.00,,,-99.99,0.0,Linux-Irox,2013-03-14 15:36:00,
2013-03-14 08:46:00,60.8,26.6,29.71,West,270,0.0,0.0,5,0.00,,,-99.99,0.0,Linux-Irox,2013-03-14 15:46:00,
2013-03-14 08:56:00,62.6,28.4,29.71,ENE,67,0.0,0.0,5,0.00,,,-99.99,0.0,Linux-Irox,2013-03-14 15:56:00,
2013-03-14 09:01:00,62.8,28.6,29.70,North,0,0.0,0.0,5,0.00,,,-99.99,0.0,Linux-Irox,2013-03-14 16:01:00,
2013-03-14 09:06:00,64.9,30.7,29.70,ESE,112,0.0,0.0,5,0.00,,,-99.99,0.0,Linux-Irox,2013-03-14 16:06:00,
2013-03-14 09:16:00,67.5,33.3,29.70,East,90,0.0,0.0,5,0.00,,,-99.99,0.0,Linux-Irox,2013-03-14 16:16:00,
2013-03-14 09:17:00,67.5,33.3,29.70,East,90,0.0,0.0,5,0.00,,,-99.99,0.0,Linux-Irox,2013-03-14 16:17:00,
2013-03-14 09:26:00,68.7,34.5,29.71,NNE,22,0.0,0.0,5,0.00,,,-99.99,0.0,Linux-Irox,2013-03-14 16:26:00,
2013-03-14 09:31:00,68.2,34.0,29.71,SW,225,0.2,3.3,5,0.00,,,-99.99,0.0,Linux-Irox,2013-03-14 16:31:00,
2013-03-14 09:36:00,68.2,34.0,29.71,East,90,0.2,0.0,5,0.00,,,-99.99,0.0,Linux-Irox,2013-03-14 16:36:00,
2013-03-14 09:46:00,70.5,36.3,29.69,ENE,67,0.2,1.1,5,0.00,,,-99.99,0.0,Linux-Irox,2013-03-14 16:46:00,
2013-03-14 09:47:00,70.5,36.3,29.69,ENE,67,0.7,2.7,5,0.00,,,-99.99,0.0,Linux-Irox,2013-03-14 16:47:00,
2013-03-14 09:56:00,72.1,37.9,29.69,SE,135,0.7,1.8,5,0.00,,,-99.99,0.0,Linux-Irox,2013-03-14 16:56:00,
2013-03-14 10:02:00,72.0,37.8,29.70,East,90,1.3,3.3,5,0.00,,,-99.99,0.0,Linux-Irox,2013-03-14 17:02:00,
2013-03-14 10:06:00,72.5,38.3,29.70,SE,135,0.9,0.0,5,0.00,,,-99.99,0.0,Linux-Irox,2013-03-14 17:06:00,
2013-03-14 10:16:00,71.8,37.6,29.70,ENE,67,0.4,2.2,5,0.00,,,-99.99,0.0,Linux-Irox,2013-03-14 17:16:00,
2013-03-14 10:26:00,72.5,38.3,29.71,East,90,0.7,1.6,5,0.00,,,-99.99,0.0,Linux-Irox,2013-03-14 17:26:00,
2013-03-14 10:31:00,73.8,39.6,29.71,ESE,112,1.8,0.0,5,0.00,,,-99.99,0.0,Linux-Irox,2013-03-14 17:31:00,
2013-03-14 10:36:00,73.6,39.4,29.71,ENE,67,0.9,0.0,5,0.00,,,-99.99,0.0,Linux-Irox,2013-03-14 17:36:00,
2013-03-14 10:46:00,76.1,41.9,29.71,SW,225,1.6,3.1,5,0.00,,,-99.99,0.0,Linux-Irox,2013-03-14 17:46:00,
2013-03-14 10:56:00,75.6,41.4,29.71,SSE,157,0.9,2.2,5,0.00,,,-99.99,0.0,Linux-Irox,2013-03-14 17:56:00,
2013-03-14 11:01:00,75.7,41.5,29.72,WSW,247,3.1,7.6,5,0.00,,,-99.99,0.0,Linux-Irox,2013-03-14 18:01:00,
2013-03-14 11:06:00,76.6,42.4,29.72,West,270,1.6,2.2,5,0.00,,,-99.99,0.0,Linux-Irox,2013-03-14 18:06:00,
2013-03-14 11:16:00,76.8,42.6,29.72,SW,225,3.3,6.7,5,0.00,,,-99.99,0.0,Linux-Irox,2013-03-14 18:16:00,
2013-03-14 11:26:00,76.3,42.1,29.71,WSW,247,2.5,3.1,5,0.00,,,-99.99,0.0,Linux-Irox,2013-03-14 18:26:00,
2013-03-14 11:31:00,76.1,41.9,29.71,SE,135,4.9,5.8,5,0.00,,,-99.99,0.0,Linux-Irox,2013-03-14 18:31:00,
2013-03-14 11:36:00,75.4,41.2,29.71,West,270,2.0,3.6,5,0.00,,,-99.99,0.0,Linux-Irox,2013-03-14 18:36:00,
2013-03-14 11:46:00,77.2,43.0,29.72,ENE,67,5.4,5.4,5,0.00,,,-99.99,0.0,Linux-Irox,2013-03-14 18:46:00,
2013-03-14 11:56:00,75.6,41.4,29.72,ESE,112,1.3,2.2,5,0.00,,,-99.99,0.0,Linux-Irox,2013-03-14 18:56:00,
2013-03-14 12:01:00,75.7,41.5,29.72,ESE,112,3.1,4.5,5,0.00,,,-99.99,0.0,Linux-Irox,2013-03-14 19:01:00,
2013-03-14 12:06:00,75.7,41.5,29.72,ESE,112,1.3,2.0,5,0.00,,,-99.99,0.0,Linux-Irox,2013-03-14 19:06:00,
2013-03-14 12:16:00,77.4,43.2,29.72,WSW,247,4.5,9.6,5,0.00,,,-99.99,0.0,Linux-Irox,2013-03-14 19:16:00,
2013-03-14 12:26:00,77.9,43.7,29.70,SE,135,2.7,3.8,5,0.00,,,-99.99,0.0,Linux-Irox,2013-03-14 19:26:00,
2013-03-14 12:31:00,77.0,42.8,29.70,ESE,112,5.8,5.8,5,0.00,,,-99.99,0.0,Linux-Irox,2013-03-14 19:31:00,
2013-03-14 12:36:00,77.7,43.5,29.70,West,270,2.2,2.7,5,0.00,,,-99.99,0.0,Linux-Irox,2013-03-14 19:36:00,
2013-03-14 12:46:00,76.5,42.3,29.70,ESE,112,4.0,11.1,5,0.00,,,-99.99,0.0,Linux-Irox,2013-03-14 19:46:00,
2013-03-14 12:56:00,77.7,43.5,29.70,WSW,247,2.2,3.3,5,0.00,,,-99.99,0.0,Linux-Irox,2013-03-14 19:56:00,
2013-03-14 13:02:00,77.2,43.0,29.69,SW,225,6.0,7.4,5,0.00,,,-99.99,0.0,Linux-Irox,2013-03-14 20:02:00,
2013-03-14 13:06:00,77.4,43.2,29.69,West,270,2.9,5.8,5,0.00,,,-99.99,0.0,Linux-Irox,2013-03-14 20:06:00,
2013-03-14 13:16:00,76.8,42.6,29.69,SSE,157,4.9,4.9,5,0.00,,,-99.99,0.0,Linux-Irox,2013-03-14 20:16:00,
2013-03-14 13:26:00,77.5,43.3,29.69,NNE,22,2.9,4.5,5,0.00,,,-99.99,0.0,Linux-Irox,2013-03-14 20:26:00,
2013-03-14 13:31:00,76.6,42.4,29.69,WSW,247,7.8,11.8,5,0.00,,,-99.99,0.0,Linux-Irox,2013-03-14 20:31:00,
2013-03-14 13:36:00,75.9,41.7,29.69,WNW,292,2.7,2.7,5,0.00,,,-99.99,0.0,Linux-Irox,2013-03-14 20:36:00,
2013-03-14 13:46:00,77.4,43.2,29.69,SW,225,6.7,6.7,5,0.00,,,-99.99,0.0,Linux-Irox,2013-03-14 20:46:00,
2013-03-14 13:56:00,77.2,43.0,29.69,WSW,247,2.9,4.2,5,0.00,,,-99.99,0.0,Linux-Irox,2013-03-14 20:56:00,
2013-03-14 14:01:00,77.2,43.0,29.69,West,270,7.1,13.8,5,0.00,,,-99.99,0.0,Linux-Irox,2013-03-14 21:01:00,
2013-03-14 14:06:00,77.5,43.3,29.69,WSW,247,3.8,7.4,5,0.00,,,-99.99,0.0,Linux-Irox,2013-03-14 21:06:00,
2013-03-14 14:16:00,76.6,42.4,29.69,SW,225,8.9,8.9,5,0.00,,,-99.99,0.0,Linux-Irox,2013-03-14 21:16:00,
2013-03-14 14:26:00,77.0,42.8,29.69,South,180,2.9,2.9,5,0.00,,,-99.99,0.0,Linux-Irox,2013-03-14 21:26:00,
2013-03-14 14:31:00,76.6,42.4,29.69,SW,225,6.2,6.5,5,0.00,,,-99.99,0.0,Linux-Irox,2013-03-14 21:31:00,
2013-03-14 14:36:00,77.0,42.8,29.69,NE,45,2.7,0.0,5,0.00,,,-99.99,0.0,Linux-Irox,2013-03-14 21:36:00,
2013-03-14 14:46:00,77.0,42.8,29.68,WSW,247,4.9,4.9,5,0.00,,,-99.99,0.0,Linux-Irox,2013-03-14 21:46:00,
2013-03-14 14:56:00,76.3,42.1,29.68,SW,225,2.0,2.0,5,0.00,,,-99.99,0.0,Linux-Irox,2013-03-14 21:56:00,
2013-03-14 15:01:00,76.1,41.9,29.68,SW,225,4.2,0.0,5,0.00,,,-99.99,0.0,Linux-Irox,2013-03-14 22:01:00,
2013-03-14 15:06:00,75.9,41.7,29.68,NW,315,1.8,2.0,5,0.00,,,-99.99,0.0,Linux-Irox,2013-03-14 22:06:00,
2013-03-14 15:16:00,75.7,41.5,29.68,WNW,292,3.8,4.0,5,0.00,,,-99.99,0.0,Linux-Irox,2013-03-14 22:16:00,
2013-03-14 15:26:00,75.4,41.2,29.68,ESE,112,1.3,1.3,5,0.00,,,-99.99,0.0,Linux-Irox,2013-03-14 22:26:00,
2013-03-14 15:31:00,75.2,41.0,29.68,West,270,2.0,0.0,5,0.00,,,-99.99,0.0,Linux-Irox,2013-03-14 22:31:00,
2013-03-14 15:36:00,75.6,41.4,29.68,WSW,247,0.9,2.2,5,0.00,,,-99.99,0.0,Linux-Irox,2013-03-14 22:36:00,
2013-03-14 15:46:00,75.7,41.5,29.65,SE,135,3.1,3.1,5,0.00,,,-99.99,0.0,Linux-Irox,2013-03-14 22:46:00,
2013-03-14 15:56:00,75.7,41.5,29.65,SSE,157,2.0,2.0,5,0.00,,,-99.99,0.0,Linux-Irox,2013-03-14 22:56:00,
2013-03-14 16:01:00,75.7,41.5,29.65,WSW,247,4.9,7.4,5,0.00,,,-99.99,0.0,Linux-Irox,2013-03-14 23:01:00,
2013-03-14 16:06:00,75.7,41.5,29.65,WNW,292,2.0,3.1,5,0.00,,,-99.99,0.0,Linux-Irox,2013-03-14 23:06:00,
2013-03-14 16:16:00,73.9,39.7,29.65,WNW,292,4.2,4.5,5,0.00,,,-99.99,0.0,Linux-Irox,2013-03-14 23:16:00,
2013-03-14 16:26:00,73.4,39.2,29.66,West,270,2.5,3.1,5,0.00,,,-99.99,0.0,Linux-Irox,2013-03-14 23:26:00,
2013-03-14 16:31:00,73.8,39.6,29.66,West,270,4.7,5.8,5,0.00,,,-99.99,0.0,Linux-Irox,2013-03-14 23:31:00,
2013-03-14 16:36:00,74.3,40.1,29.66,West,270,1.8,2.9,5,0.00,,,-99.99,0.0,Linux-Irox,2013-03-14 23:36:00,
2013-03-14 16:46:00,73.0,38.8,29.66,West,270,4.9,6.7,5,0.00,,,-99.99,0.0,Linux-Irox,2013-03-14 23:46:00,
2013-03-14 16:56:00,73.4,39.2,29.66,West,270,2.5,2.5,5,0.00,,,-99.99,0.0,Linux-Irox,2013-03-14 23:56:00,
2013-03-14 17:01:00,72.5,38.3,29.66,WSW,247,5.8,5.8,5,0.00,,,-99.99,0.0,Linux-Irox,2013-03-15 00:01:00,
2013-03-14 17:06:00,71.6,37.4,29.66,West,270,2.2,2.2,5,0.00,,,-99.99,0.0,Linux-Irox,2013-03-15 00:06:00,
2013-03-14 17:16:00,72.3,38.1,29.66,ESE,112,0.4,0.0,5,0.00,,,-99.99,0.0,Linux-Irox,2013-03-15 00:16:00,
2013-03-14 17:26:00,71.8,37.6,29.65,WSW,247,1.1,1.8,5,0.00,,,-99.99,0.0,Linux-Irox,2013-03-15 00:26:00,
2013-03-14 17:31:00,70.9,36.7,29.65,West,270,2.5,0.0,5,0.00,,,-99.99,0.0,Linux-Irox,2013-03-15 00:31:00,
2013-03-14 17:36:00,69.6,35.4,29.65,WSW,247,0.9,1.8,5,0.00,,,-99.99,0.0,Linux-Irox,2013-03-15 00:36:00,
2013-03-14 17:46:00,68.7,34.5,29.64,WNW,292,2.5,0.0,5,0.00,,,-99.99,0.0,Linux-Irox,2013-03-15 00:46:00,
2013-03-14 17:56:00,68.5,34.3,29.64,NNE,22,0.0,0.0,5,0.00,,,-99.99,0.0,Linux-Irox,2013-03-15 00:56:00,
2013-03-14 18:01:00,68.4,34.2,29.64,SSW,202,0.0,0.0,5,0.00,,,-99.99,0.0,Linux-Irox,2013-03-15 01:01:00,
2013-03-14 18:06:00,68.0,33.8,29.64,West,270,0.0,0.0,5,0.00,,,-99.99,0.0,Linux-Irox,2013-03-15 01:06:00,
2013-03-14 18:16:00,67.6,33.4,29.64,NNE,22,0.0,0.0,5,0.00,,,-99.99,0.0,Linux-Irox,2013-03-15 01:16:00,
2013-03-14 18:26:00,67.1,32.9,29.66,NNE,22,0.0,0.0,5,0.00,,,-99.99,0.0,Linux-Irox,2013-03-15 01:26:00,
2013-03-14 18:31:00,66.7,32.5,29.66,NNW,337,0.0,0.0,5,0.00,,,-99.99,0.0,Linux-Irox,2013-03-15 01:31:00,
2013-03-14 18:36:00,66.2,32.0,29.66,North,0,0.0,0.0,5,0.00,,,-99.99,0.0,Linux-Irox,2013-03-15 01:36:00,
2013-03-14 18:46:00,65.1,30.9,29.64,NNE,22,0.0,0.0,5,0.00,,,-99.99,0.0,Linux-Irox,2013-03-15 01:46:00,
2013-03-14 18:47:00,65.1,30.9,29.64,NNE,22,0.0,0.0,5,0.00,,,-99.99,0.0,Linux-Irox,2013-03-15 01:47:00,
2013-03-14 18:56:00,64.2,30.0,29.64,West,270,0.0,0.0,5,0.00,,,-99.99,0.0,Linux-Irox,2013-03-15 01:56:00,
2013-03-14 19:01:00,63.9,29.7,29.63,NNE,22,0.0,0.0,5,0.00,,,-99.99,0.0,Linux-Irox,2013-03-15 02:01:00,
2013-03-14 19:06:00,63.5,29.3,29.63,NNE,22,0.0,0.9,5,0.00,,,-99.99,0.0,Linux-Irox,2013-03-15 02:06:00,
2013-03-14 19:16:00,63.1,28.9,29.63,NE,45,0.0,0.0,5,0.00,,,-99.99,0.0,Linux-Irox,2013-03-15 02:16:00,
2013-03-14 19:26:00,62.8,28.6,29.64,East,90,0.0,0.0,5,0.00,,,-99.99,0.0,Linux-Irox,2013-03-15 02:26:00,
2013-03-14 19:31:00,62.4,28.2,29.64,ENE,67,0.0,0.0,5,0.00,,,-99.99,0.0,Linux-Irox,2013-03-15 02:31:00,
2013-03-14 19:36:00,62.2,28.0,29.64,NNE,22,0.0,0.0,5,0.00,,,-99.99,0.0,Linux-Irox,2013-03-15 02:36:00,
2013-03-14 19:46:00,61.9,27.7,29.62,NNE,22,0.0,0.0,5,0.00,,,-99.99,0.0,Linux-Irox,2013-03-15 02:46:00,
2013-03-14 19:56:00,61.7,27.5,29.62,NNE,22,0.0,0.0,5,0.00,,,-99.99,0.0,Linux-Irox,2013-03-15 02:56:00,
2013-03-14 20:01:00,61.5,27.3,29.65,ENE,67,0.0,0.0,5,0.00,,,-99.99,0.0,Linux-Irox,2013-03-15 03:01:00,
2013-03-14 20:06:00,61.2,27.0,29.65,NNW,337,0.0,0.0,5,0.00,,,-99.99,0.0,Linux-Irox,2013-03-15 03:06:00,
2013-03-14 20:16:00,60.4,26.2,29.65,ENE,67,0.4,0.0,5,0.00,,,-99.99,0.0,Linux-Irox,2013-03-15 03:16:00,
2013-03-14 20:26:00,59.7,26.6,29.65,West,270,0.0,0.0,8,0.00,,,-99.99,0.0,Linux-Irox,2013-03-15 03:26:00,
2013-03-14 20:36:00,59.2,26.1,29.65,NW,315,0.0,0.0,8,0.00,,,-99.99,0.0,Linux-Irox,2013-03-15 03:36:00,
2013-03-14 20:46:00,58.6,26.2,29.66,ENE,67,0.0,0.0,10,0.00,,,-99.99,0.0,Linux-Irox,2013-03-15 03:46:00,
2013-03-14 20:56:00,59.0,26.6,29.66,NNE,22,0.0,0.0,10,0.00,,,-99.99,0.0,Linux-Irox,2013-03-15 03:56:00,
2013-03-14 21:06:00,58.8,26.4,29.67,NNE,22,0.0,0.0,10,0.00,,,-99.99,0.0,Linux-Irox,2013-03-15 04:06:00,
2013-03-14 21:16:00,58.8,26.4,29.67,NNE,22,0.0,0.0,10,0.00,,,-99.99,0.0,Linux-Irox,2013-03-15 04:16:00,
2013-03-14 21:26:00,58.5,26.4,29.66,NNE,22,0.0,0.0,11,0.00,,,-99.99,0.0,Linux-Irox,2013-03-15 04:26:00,
2013-03-14 21:36:00,57.9,25.9,29.66,NNE,22,0.0,0.0,11,0.00,,,-99.99,0.0,Linux-Irox,2013-03-15 04:36:00,
2013-03-14 21:46:00,57.7,25.7,29.66,NNE,22,0.0,0.0,11,0.00,,,-99.99,0.0,Linux-Irox,2013-03-15 04:46:00,
2013-03-14 21:56:00,57.6,25.5,29.66,ENE,67,0.0,0.0,11,0.00,,,-99.99,0.0,Linux-Irox,2013-03-15 04:56:00,
2013-03-14 22:06:00,57.0,25.3,29.67,NNE,22,0.0,0.0,12,0.00,,,-99.99,0.0,Linux-Irox,2013-03-15 05:06:00,
2013-03-14 22:16:00,56.8,25.2,29.67,NNW,337,0.0,0.0,12,0.00,,,-99.99,0.0,Linux-Irox,2013-03-15 05:16:00,
2013-03-14 22:26:00,56.7,25.0,29.67,NE,45,0.0,0.0,12,0.00,,,-99.99,0.0,Linux-Irox,2013-03-15 05:26:00,
2013-03-14 22:36:00,56.7,25.0,29.67,NNE,22,0.0,0.0,12,0.00,,,-99.99,0.0,Linux-Irox,2013-03-15 05:36:00,
2013-03-14 22:46:00,56.5,24.8,29.68,ENE,67,0.0,0.0,12,0.00,,,-99.99,0.0,Linux-Irox,2013-03-15 05:46:00,
2013-03-14 22:56:00,56.1,24.4,29.68,NE,45,0.0,0.0,12,0.00,,,-99.99,0.0,Linux-Irox,2013-03-15 05:56:00,
2013-03-14 23:06:00,55.8,24.8,29.68,ENE,67,0.0,0.0,14,0.00,,,-99.99,0.0,Linux-Irox,2013-03-15 06:06:00,
2013-03-14 23:16:00,55.8,25.2,29.68,NNE,22,0.0,0.0,15,0.00,,,-99.99,0.0,Linux-Irox,2013-03-15 06:16:00,
2013-03-14 23:26:00,55.9,25.0,29.68,ENE,67,0.0,0.9,14,0.00,,,-99.99,0.0,Linux-Irox,2013-03-15 06:26:00,
2013-03-14 23:36:00,56.3,25.3,29.68,NW,315,0.2,0.0,14,0.00,,,-99.99,0.0,Linux-Irox,2013-03-15 06:36:00,
2013-03-14 23:46:00,55.8,24.8,29.69,WNW,292,0.0,0.0,14,0.00,,,-99.99,0.0,Linux-Irox,2013-03-15 06:46:00,
2013-03-14 23:56:00,55.6,24.6,29.69,NE,45,0.0,0.0,14,0.00,,,-99.99,0.0,Linux-Irox,2013-03-15 06:56:00,